createdAt,value
2022-11-18T00:00:53.926Z,9.668012
2022-11-18T00:01:54.062Z,9.668021
2022-11-18T00:02:53.988Z,9.668031
2022-11-18T00:03:53.921Z,9.667999
2022-11-18T00:04:53.905Z,9.667998
2022-11-18T00:05:53.904Z,9.668033
2022-11-18T00:06:53.951Z,9.667979
2022-11-18T00:07:53.888Z,9.667972
2022-11-18T00:08:53.877Z,9.667985
2022-11-18T00:09:53.879Z,9.667970
2022-11-18T00:10:53.870Z,9.667945
2022-11-18T00:11:53.842Z,9.667940
2022-11-18T00:12:53.858Z,9.667980
2022-11-18T00:13:53.852Z,9.667987
2022-11-18T00:14:53.840Z,9.668002
2022-11-18T00:15:53.863Z,9.668020
2022-11-18T00:16:53.868Z,9.668017
2022-11-18T00:17:53.835Z,9.668022
2022-11-18T00:18:53.788Z,9.668046
2022-11-18T00:19:53.825Z,9.668026
2022-11-18T00:20:53.781Z,9.668020
2022-11-18T00:21:53.771Z,9.668021
2022-11-18T00:22:53.779Z,9.668039
2022-11-18T00:23:53.829Z,9.668069
2022-11-18T00:24:54.006Z,9.668057
2022-11-18T00:25:53.783Z,9.668036
2022-11-18T00:26:53.723Z,9.668054
2022-11-18T00:27:53.733Z,9.668060
2022-11-18T00:28:53.716Z,9.668050
2022-11-18T00:29:53.741Z,9.668056
2022-11-18T00:30:53.729Z,9.668052
2022-11-18T00:31:53.724Z,9.668045
2022-11-18T00:32:53.706Z,9.668043
2022-11-18T00:33:53.675Z,9.668051
2022-11-18T00:34:53.673Z,9.668029
2022-11-18T00:35:53.688Z,9.668069
2022-11-18T00:36:53.681Z,9.668026
2022-11-18T00:37:53.672Z,9.668072
2022-11-18T00:38:53.638Z,9.668028
2022-11-18T00:39:53.672Z,9.668051
2022-11-18T00:40:53.686Z,9.668045
2022-11-18T00:41:53.660Z,9.668057
2022-11-18T00:42:53.625Z,9.667987
2022-11-18T00:43:53.627Z,9.668004
2022-11-18T00:44:53.611Z,9.667982
2022-11-18T00:45:53.588Z,9.668032
2022-11-18T00:46:53.603Z,9.668006
2022-11-18T00:47:53.593Z,9.668030
2022-11-18T00:48:53.578Z,9.668032
2022-11-18T00:49:53.565Z,9.667994
2022-11-18T00:50:53.568Z,9.668036
2022-11-18T00:51:53.580Z,9.668029
2022-11-18T00:52:53.603Z,9.667995
2022-11-18T00:53:53.526Z,9.668034
2022-11-18T00:54:54.541Z,9.668036
2022-11-18T00:55:53.588Z,9.668057
2022-11-18T00:56:53.526Z,9.668054
2022-11-18T00:57:53.589Z,9.668050
2022-11-18T00:58:53.536Z,9.668042
2022-11-18T00:59:53.519Z,9.668010
2022-11-18T01:00:53.528Z,9.667988
2022-11-18T01:01:53.565Z,9.668003
2022-11-18T01:02:53.463Z,9.668041
2022-11-18T01:03:53.475Z,9.668019
2022-11-18T01:04:53.452Z,9.668021
2022-11-18T01:05:53.467Z,9.668044
2022-11-18T01:06:53.517Z,9.667997
2022-11-18T01:07:53.434Z,9.668045
2022-11-18T01:08:53.462Z,9.668078
2022-11-18T01:09:53.447Z,9.668058
2022-11-18T01:10:53.465Z,9.668009
2022-11-18T01:11:53.414Z,9.668036
2022-11-18T01:12:54.611Z,9.668086
2022-11-18T01:13:54.392Z,9.668056
2022-11-18T01:14:53.408Z,9.668086
2022-11-18T01:15:53.428Z,9.668049
2022-11-18T01:16:53.388Z,9.668052
2022-11-18T01:17:53.358Z,9.668066
2022-11-18T01:18:53.369Z,9.668036
2022-11-18T01:19:53.384Z,9.668023
2022-11-18T01:20:53.330Z,9.667992
2022-11-18T01:21:53.330Z,9.668014
2022-11-18T01:22:53.328Z,9.668017
2022-11-18T01:23:53.367Z,9.668020
2022-11-18T01:24:53.372Z,9.668009
2022-11-18T01:25:53.285Z,9.668051
2022-11-18T01:26:53.283Z,9.668020
2022-11-18T01:27:53.278Z,9.667972
2022-11-18T01:28:53.293Z,9.667986
2022-11-18T01:29:53.292Z,9.668006
2022-11-18T01:30:53.256Z,9.667969
2022-11-18T01:32:22.982Z,9.667953
2022-11-18T01:32:55.256Z,9.667970
2022-11-18T01:33:53.307Z,9.667982
2022-11-18T01:34:53.238Z,9.667973
2022-11-18T01:35:53.271Z,9.667969
2022-11-18T01:36:53.239Z,9.667965
2022-11-18T01:37:53.222Z,9.667979
2022-11-18T01:38:53.196Z,9.667974
2022-11-18T01:39:53.211Z,9.667987
2022-11-18T01:40:53.206Z,9.668002
2022-11-18T01:41:53.210Z,9.668006
2022-11-18T01:42:53.314Z,9.667994
2022-11-18T01:43:53.172Z,9.668002
2022-11-18T01:44:53.186Z,9.667977
2022-11-18T02:05:47.827Z,9.668170
2022-11-18T02:06:47.900Z,9.668176
2022-11-18T02:07:47.798Z,9.668053
2022-11-18T02:08:47.827Z,9.667713
2022-11-18T02:09:47.813Z,9.667789
2022-11-18T02:10:47.772Z,9.667889
2022-11-18T02:11:47.838Z,9.667979
2022-11-18T02:12:47.922Z,9.668006
2022-11-18T02:13:47.871Z,9.667891
2022-11-18T02:14:47.747Z,9.667946
2022-11-18T02:15:47.761Z,9.667885
2022-11-18T02:16:47.760Z,9.667973
2022-11-18T02:17:47.742Z,9.667920
2022-11-18T02:18:47.718Z,9.667960
2022-11-18T02:19:47.705Z,9.667959
2022-11-18T02:20:47.720Z,9.667897
2022-11-18T02:21:47.695Z,9.667943
2022-11-18T02:22:47.683Z,9.668072
2022-11-18T02:23:47.737Z,9.668005
2022-11-18T02:24:47.722Z,9.668096
2022-11-18T02:25:47.668Z,9.668049
2022-11-18T02:26:47.681Z,9.668004
2022-11-18T02:27:47.647Z,9.668023
2022-11-18T02:28:47.687Z,9.667938
2022-11-18T02:29:47.656Z,9.668017
2022-11-18T02:30:47.688Z,9.667968
2022-11-18T02:31:47.653Z,9.667982
2022-11-18T02:32:47.607Z,9.667924
2022-11-18T02:33:47.634Z,9.667973
2022-11-18T02:34:47.610Z,9.668012
2022-11-18T02:35:47.643Z,9.667985
2022-11-18T02:36:47.628Z,9.667957
2022-11-18T02:37:47.680Z,9.667970
2022-11-18T02:38:47.563Z,9.667988
2022-11-18T02:39:47.566Z,9.667904
2022-11-18T02:40:47.547Z,9.667890
2022-11-18T02:41:47.585Z,9.667902
2022-11-18T02:42:48.556Z,9.667965
2022-11-18T02:43:47.545Z,9.667933
2022-11-18T02:44:47.527Z,9.667874
2022-11-18T02:45:47.556Z,9.667885
2022-11-18T02:46:47.551Z,9.667882
2022-11-18T02:48:19.425Z,9.667866
2022-11-18T02:48:47.514Z,9.667835
2022-11-18T02:49:47.509Z,9.667850
2022-11-18T02:50:47.489Z,9.667917
2022-11-18T02:51:48.480Z,9.667906
2022-11-18T02:52:47.477Z,9.668014
2022-11-18T02:53:47.483Z,9.668015
2022-11-18T02:54:47.493Z,9.667958
2022-11-18T02:55:47.472Z,9.667970
2022-11-18T02:56:47.433Z,9.667906
2022-11-18T02:57:47.432Z,9.667947
2022-11-18T02:58:47.427Z,9.667914
2022-11-18T02:59:47.401Z,9.667949
2022-11-18T03:00:47.423Z,9.667911
2022-11-18T03:01:47.447Z,9.667896
2022-11-18T03:02:47.392Z,9.667942
2022-11-18T03:03:47.387Z,9.667918
2022-11-18T03:04:47.385Z,9.667973
2022-11-18T03:05:47.379Z,9.667953
2022-11-18T03:06:47.398Z,9.667949
2022-11-18T03:07:47.372Z,9.667997
2022-11-18T03:08:47.338Z,9.667986
2022-11-18T03:09:47.388Z,9.668029
2022-11-18T03:10:47.405Z,9.667994
2022-11-18T03:11:47.386Z,9.668010
2022-11-18T03:12:47.320Z,9.667998
2022-11-18T03:13:47.348Z,9.668009
2022-11-18T03:14:47.317Z,9.668037
2022-11-18T03:15:47.287Z,9.667991
2022-11-18T03:16:47.278Z,9.668005
2022-11-18T03:17:48.321Z,9.668019
2022-11-18T03:18:48.318Z,9.667939
2022-11-18T03:19:47.272Z,9.667908
2022-11-18T03:20:47.278Z,9.667910
2022-11-18T03:21:47.253Z,9.668019
2022-11-18T03:22:47.263Z,9.667996
2022-11-18T03:23:47.240Z,9.667948
2022-11-18T03:24:47.258Z,9.667960
2022-11-18T03:25:47.203Z,9.667959
2022-11-18T03:26:47.255Z,9.667941
2022-11-18T03:27:47.284Z,9.667953
2022-11-18T03:28:47.206Z,9.667964
2022-11-18T03:29:47.219Z,9.668004
2022-11-18T03:30:47.223Z,9.668019
2022-11-18T03:31:47.227Z,9.667980
2022-11-18T03:32:47.192Z,9.668011
2022-11-18T03:33:47.164Z,9.667977
2022-11-18T03:34:47.154Z,9.667982
2022-11-18T03:35:47.152Z,9.667973
2022-11-18T03:36:51.646Z,9.668004
2022-11-18T03:37:48.147Z,9.668023
2022-11-18T03:38:47.127Z,9.667990
2022-11-18T03:39:47.132Z,9.667998
2022-11-18T03:40:47.134Z,9.667970
2022-11-18T03:41:47.105Z,9.668003
2022-11-18T03:42:47.116Z,9.667956
2022-11-18T03:43:47.097Z,9.667997
2022-11-18T03:44:52.087Z,9.667957
2022-11-18T03:45:49.082Z,9.668023
2022-11-18T03:46:47.069Z,9.667995
2022-11-18T04:06:31.628Z,9.667841
2022-11-18T04:06:58.779Z,9.667939
2022-11-18T04:08:30.626Z,9.667974
2022-11-18T04:09:30.576Z,9.667954
2022-11-18T04:09:58.671Z,9.667980
2022-11-18T04:10:58.728Z,9.667957
2022-11-18T04:11:58.661Z,9.667991
2022-11-18T04:13:04.707Z,9.667976
2022-11-18T04:14:00.646Z,9.667970
2022-11-18T04:14:58.636Z,9.667932
2022-11-18T04:15:58.615Z,9.667994
2022-11-18T04:16:58.613Z,9.667976
2022-11-18T04:17:58.623Z,9.667981
2022-11-18T04:19:04.390Z,9.667995
2022-11-18T04:20:00.587Z,9.667973
2022-11-18T04:21:30.500Z,9.668028
2022-11-18T04:22:30.495Z,9.668039
2022-11-18T04:23:30.475Z,9.668032
2022-11-18T04:24:30.471Z,9.668031
2022-11-18T04:25:30.478Z,9.668026
2022-11-18T04:26:31.009Z,9.668035
2022-11-18T04:26:58.634Z,9.668078
2022-11-18T04:27:58.657Z,9.668067
2022-11-18T04:28:58.552Z,9.668072
2022-11-18T04:29:58.536Z,9.668109
2022-11-18T04:30:58.533Z,9.668076
2022-11-18T04:31:58.506Z,9.668066
2022-11-18T04:32:58.527Z,9.668077
2022-11-18T04:33:58.579Z,9.668014
2022-11-18T04:34:58.534Z,9.668012
2022-11-18T04:35:58.566Z,9.668036
2022-11-18T04:36:58.526Z,9.667940
2022-11-18T04:37:58.519Z,9.668004
2022-11-18T04:38:58.518Z,9.668058
2022-11-18T04:39:58.502Z,9.668021
2022-11-18T04:40:58.489Z,9.668029
2022-11-18T04:41:58.561Z,9.668003
2022-11-18T04:42:58.480Z,9.667990
2022-11-18T04:43:58.464Z,9.667994
2022-11-18T04:44:58.456Z,9.668003
2022-11-18T04:45:58.436Z,9.667997
2022-11-18T04:46:58.451Z,9.667976
2022-11-18T04:48:03.228Z,9.667949
2022-11-18T04:49:00.496Z,9.667967
2022-11-18T04:49:58.492Z,9.667993
2022-11-18T04:50:58.437Z,9.667975
2022-11-18T04:51:58.424Z,9.667921
2022-11-18T04:52:58.345Z,9.667905
2022-11-18T04:53:58.336Z,9.667829
2022-11-18T04:54:58.404Z,9.667894
2022-11-18T04:55:58.330Z,9.667994
2022-11-18T04:56:58.386Z,9.667996
2022-11-18T04:57:58.319Z,9.668018
2022-11-18T04:58:58.327Z,9.668022
2022-11-18T04:59:58.359Z,9.667980
2022-11-18T05:00:58.417Z,9.667967
2022-11-18T05:01:58.372Z,9.668012
2022-11-18T05:03:30.190Z,9.667987
2022-11-18T05:03:58.245Z,9.667967
2022-11-18T05:04:58.251Z,9.667956
2022-11-18T05:05:58.264Z,9.667975
2022-11-18T05:06:58.311Z,9.667984
2022-11-18T05:07:58.247Z,9.667972
2022-11-18T05:08:58.250Z,9.667994
2022-11-18T05:09:58.213Z,9.667966
2022-11-18T05:10:58.195Z,9.668025
2022-11-18T05:11:58.213Z,9.667985
2022-11-18T05:12:58.213Z,9.667965
2022-11-18T05:13:58.179Z,9.667926
2022-11-18T05:15:30.101Z,9.667941
2022-11-18T05:16:30.087Z,9.667954
2022-11-18T05:16:58.173Z,9.667940
2022-11-18T05:17:58.213Z,9.667974
2022-11-18T05:18:58.149Z,9.668009
2022-11-18T05:19:58.177Z,9.667965
2022-11-18T05:20:58.143Z,9.668015
2022-11-18T05:21:58.162Z,9.668015
2022-11-18T05:22:58.218Z,9.667979
2022-11-18T05:23:58.092Z,9.668030
2022-11-18T05:24:58.120Z,9.668050
2022-11-18T05:26:02.328Z,9.668024
2022-11-18T05:26:59.149Z,9.667994
2022-11-18T05:27:58.068Z,9.668028
2022-11-18T05:28:58.085Z,9.668014
2022-11-18T05:29:58.074Z,9.667979
2022-11-18T05:30:58.044Z,9.668031
2022-11-18T05:31:58.075Z,9.668077
2022-11-18T05:32:58.061Z,9.667975
2022-11-18T05:33:58.537Z,9.667959
2022-11-18T05:34:58.010Z,9.667975
2022-11-18T05:35:58.108Z,9.667973
2022-11-18T05:36:57.994Z,9.668038
2022-11-18T05:37:57.988Z,9.668005
2022-11-18T05:38:58.022Z,9.667912
2022-11-18T05:39:58.058Z,9.668004
2022-11-18T05:40:58.031Z,9.667995
2022-11-18T05:41:57.981Z,9.668024
2022-11-18T05:42:57.960Z,9.667931
2022-11-18T05:43:57.927Z,9.667952
2022-11-18T05:44:58.898Z,9.667997
2022-11-18T05:45:59.000Z,9.667897
2022-11-18T05:46:57.917Z,9.667940
2022-11-18T05:47:57.964Z,9.667974
2022-11-18T05:48:57.975Z,9.667955
2022-11-18T05:49:57.942Z,9.668010
2022-11-18T05:50:57.931Z,9.667992
2022-11-18T05:51:57.937Z,9.667933
2022-11-18T05:52:57.911Z,9.667988
2022-11-18T05:53:57.848Z,9.667901
2022-11-18T05:54:57.889Z,9.667985
2022-11-18T05:55:57.906Z,9.667923
2022-11-18T05:56:57.894Z,9.667947
2022-11-18T05:57:57.848Z,9.667914
2022-11-18T05:58:57.831Z,9.667872
2022-11-18T05:59:57.847Z,9.667936
2022-11-18T06:00:57.849Z,9.667946
2022-11-18T06:01:57.834Z,9.667933
2022-11-18T06:02:57.851Z,9.667963
2022-11-18T06:03:57.816Z,9.667991
2022-11-18T06:04:57.806Z,9.667972
2022-11-18T06:05:57.772Z,9.667975
2022-11-18T06:06:57.869Z,9.668084
2022-11-18T06:07:57.791Z,9.667959
2022-11-18T06:08:57.751Z,9.668036
2022-11-18T06:10:02.111Z,9.667982
2022-11-18T06:10:59.770Z,9.668060
2022-11-18T06:11:57.754Z,9.668006
2022-11-18T06:12:57.859Z,9.668037
2022-11-18T06:13:57.898Z,9.668000
2022-11-18T06:14:57.723Z,9.667974
2022-11-18T06:15:57.693Z,9.668038
2022-11-18T06:16:57.687Z,9.668028
2022-11-18T06:17:57.708Z,9.667998
2022-11-18T06:18:58.473Z,9.667971
2022-11-18T06:19:57.768Z,9.667948
2022-11-18T06:20:57.892Z,9.667919
2022-11-18T06:21:57.662Z,9.667966
2022-11-18T06:22:57.680Z,9.667941
2022-11-18T06:23:57.663Z,9.668000
2022-11-18T06:24:57.685Z,9.667910
2022-11-18T06:25:57.674Z,9.667858
2022-11-18T06:26:57.609Z,9.667879
2022-11-18T06:27:57.598Z,9.667830
2022-11-18T06:28:57.603Z,9.667996
2022-11-18T06:29:57.593Z,9.667979
2022-11-18T06:30:57.576Z,9.667850
2022-11-18T06:31:57.578Z,9.667857
2022-11-18T06:32:57.616Z,9.667937
2022-11-18T06:33:57.569Z,9.668040
2022-11-18T06:34:57.588Z,9.667946
2022-11-18T06:35:57.551Z,9.667976
2022-11-18T06:36:57.533Z,9.668060
2022-11-18T06:37:57.538Z,9.667993
2022-11-18T06:38:57.535Z,9.667960
2022-11-18T06:39:57.566Z,9.668061
2022-11-18T06:40:57.498Z,9.668002
2022-11-18T06:41:57.519Z,9.668004
2022-11-18T06:42:57.464Z,9.667796
2022-11-18T06:43:57.458Z,9.667884
2022-11-18T06:44:58.542Z,9.667903
2022-11-18T06:45:57.474Z,9.667972
2022-11-18T06:46:57.471Z,9.667999
2022-11-18T06:47:57.465Z,9.667981
2022-11-18T06:48:57.463Z,9.667950
2022-11-18T06:49:57.454Z,9.668042
2022-11-18T06:50:57.455Z,9.667961
2022-11-18T06:51:58.193Z,9.667935
2022-11-18T06:52:57.457Z,9.667966
2022-11-18T06:53:57.407Z,9.667946
2022-11-18T06:54:57.434Z,9.667995
2022-11-18T06:55:57.377Z,9.668034
2022-11-18T06:56:57.425Z,9.668041
2022-11-18T06:57:57.405Z,9.667961
2022-11-18T06:58:57.421Z,9.667964
2022-11-18T07:00:01.817Z,9.668054
2022-11-18T07:00:59.515Z,9.668007
2022-11-18T07:01:57.342Z,9.668056
2022-11-18T07:03:29.251Z,9.668023
2022-11-18T07:03:57.396Z,9.667968
2022-11-18T07:04:57.315Z,9.668063
2022-11-18T07:05:57.318Z,9.667983
2022-11-18T07:06:57.387Z,9.668004
2022-11-18T07:07:58.265Z,9.668048
2022-11-18T07:08:57.289Z,9.668000
2022-11-18T07:09:58.065Z,9.668096
2022-11-18T07:10:57.248Z,9.668083
2022-11-18T07:11:57.247Z,9.668064
2022-11-18T07:12:57.321Z,9.668056
2022-11-18T07:13:57.273Z,9.668069
2022-11-18T07:14:57.260Z,9.668056
2022-11-18T07:15:57.246Z,9.668056
2022-11-18T07:16:57.217Z,9.668034
2022-11-18T07:17:57.226Z,9.667994
2022-11-18T07:18:57.265Z,9.668059
2022-11-18T07:19:57.239Z,9.668027
2022-11-18T07:20:57.179Z,9.668055
2022-11-18T07:21:57.195Z,9.668028
2022-11-18T07:22:57.216Z,9.668077
2022-11-18T07:23:58.181Z,9.668032
2022-11-18T07:24:57.193Z,9.668032
2022-11-18T07:25:57.163Z,9.668075
2022-11-18T07:26:57.209Z,9.668040
2022-11-18T07:27:57.150Z,9.668043
2022-11-18T07:28:57.122Z,9.668062
2022-11-18T07:29:57.115Z,9.668031
2022-11-18T07:30:57.182Z,9.667999
2022-11-18T07:31:57.120Z,9.667994
2022-11-18T07:32:57.125Z,9.668015
2022-11-18T07:33:57.076Z,9.668058
2022-11-18T07:34:57.084Z,9.668052
2022-11-18T07:35:58.064Z,9.668060
2022-11-18T07:36:57.075Z,9.668007
2022-11-18T07:37:57.046Z,9.668013
2022-11-18T07:38:57.059Z,9.668043
2022-11-18T07:39:57.036Z,9.668076
2022-11-18T07:40:57.037Z,9.668044
2022-11-18T07:41:57.025Z,9.668025
2022-11-18T07:42:57.025Z,9.668006
2022-11-18T07:44:00.480Z,9.668049
2022-11-18T07:44:57.995Z,9.668027
2022-11-18T07:45:56.997Z,9.668073
2022-11-18T07:46:57.039Z,9.667987
2022-11-18T07:47:56.991Z,9.667998
2022-11-18T07:48:56.969Z,9.668065
2022-11-18T07:49:56.938Z,9.667975
2022-11-18T07:50:56.964Z,9.667953
2022-11-18T07:51:57.018Z,9.668039
2022-11-18T07:52:56.945Z,9.668018
2022-11-18T07:53:56.922Z,9.668056
2022-11-18T07:54:56.924Z,9.668032
2022-11-18T07:55:56.897Z,9.668011
2022-11-18T07:56:56.940Z,9.667988
2022-11-18T07:57:56.923Z,9.668007
2022-11-18T07:58:56.911Z,9.668014
2022-11-18T07:59:56.894Z,9.668003
2022-11-18T08:00:56.855Z,9.668015
2022-11-18T08:01:56.937Z,9.668062
2022-11-18T08:02:56.856Z,9.667999
2022-11-18T08:03:56.872Z,9.668031
2022-11-18T08:04:56.854Z,9.668034
2022-11-18T08:05:56.853Z,9.668003
2022-11-18T08:06:56.978Z,9.668017
2022-11-18T08:07:56.808Z,9.668036
2022-11-18T08:08:56.831Z,9.668020
2022-11-18T08:09:56.799Z,9.668014
2022-11-18T08:10:56.817Z,9.668041
2022-11-18T08:11:56.784Z,9.668039
2022-11-18T08:12:56.795Z,9.668044
2022-11-18T08:13:56.794Z,9.668007
2022-11-18T08:14:56.790Z,9.668023
2022-11-18T08:15:56.758Z,9.668038
2022-11-18T08:16:56.780Z,9.668019
2022-11-18T08:17:56.754Z,9.667999
2022-11-18T08:18:56.739Z,9.668002
2022-11-18T08:19:56.785Z,9.668009
2022-11-18T08:20:56.740Z,9.668024
2022-11-18T08:21:56.733Z,9.668006
2022-11-18T08:22:56.701Z,9.668023
2022-11-18T08:23:56.763Z,9.668021
2022-11-18T08:24:56.700Z,9.668037
2022-11-18T08:25:56.725Z,9.668008
2022-11-18T08:26:56.675Z,9.667994
2022-11-18T08:27:56.669Z,9.667993
2022-11-18T08:28:56.756Z,9.668011
2022-11-18T08:29:56.685Z,9.668055
2022-11-18T08:30:56.662Z,9.668021
2022-11-18T08:31:56.658Z,9.668055
2022-11-18T08:32:56.639Z,9.668009
2022-11-18T08:33:56.608Z,9.667982
2022-11-18T08:34:56.627Z,9.668005
2022-11-18T08:35:56.665Z,9.668006
2022-11-18T08:36:56.645Z,9.667994
2022-11-18T08:37:56.660Z,9.668017
2022-11-18T08:38:56.616Z,9.668034
2022-11-18T08:39:56.669Z,9.667994
2022-11-18T08:40:56.609Z,9.668030
2022-11-18T08:41:56.588Z,9.668032
2022-11-18T08:42:57.531Z,9.668000
2022-11-18T08:43:56.539Z,9.668025
2022-11-18T08:44:56.560Z,9.668065
2022-11-18T08:45:56.556Z,9.668072
2022-11-18T08:46:56.584Z,9.668068
2022-11-18T08:47:56.554Z,9.668016
2022-11-18T08:48:56.514Z,9.668052
2022-11-18T08:49:56.493Z,9.668034
2022-11-18T08:50:56.642Z,9.668030
2022-11-18T08:51:56.506Z,9.668071
2022-11-18T08:52:56.474Z,9.668136
2022-11-18T08:53:57.545Z,9.668077
2022-11-18T08:54:56.455Z,9.668084
2022-11-18T08:55:57.356Z,9.668110
2022-11-18T08:56:57.441Z,9.668078
2022-11-18T08:57:56.436Z,9.668063
2022-11-18T08:58:56.491Z,9.668061
2022-11-18T08:59:56.497Z,9.668069
2022-11-18T09:00:56.445Z,9.668084
2022-11-18T09:01:57.552Z,9.668029
2022-11-18T09:02:56.447Z,9.668040
2022-11-18T09:03:56.522Z,9.668069
2022-11-18T09:04:56.395Z,9.668050
2022-11-18T09:05:56.432Z,9.668068
2022-11-18T09:06:56.448Z,9.668148
2022-11-18T09:07:56.442Z,9.668126
2022-11-18T09:08:56.356Z,9.668114
2022-11-18T09:09:56.382Z,9.668096
2022-11-18T09:10:56.322Z,9.668078
2022-11-18T09:15:41.995Z,9.668204
2022-11-18T09:16:16.067Z,9.668041
2022-11-18T09:17:47.920Z,9.668021
2022-11-18T09:18:47.981Z,9.668110
2022-11-18T09:19:45.467Z,9.668094
2022-11-18T09:20:47.987Z,9.668076
2022-11-18T09:21:48.413Z,9.668108
2022-11-18T09:22:47.931Z,9.668077
2022-11-18T09:23:16.010Z,9.668147
2022-11-18T09:24:16.717Z,9.668038
2022-11-18T09:25:47.924Z,9.668032
2022-11-18T09:26:15.981Z,9.668047
2022-11-18T09:27:47.848Z,9.668069
2022-11-18T09:28:47.892Z,9.668100
2022-11-18T09:29:15.969Z,9.668040
2022-11-18T09:30:16.728Z,9.668081
2022-11-18T09:31:15.944Z,9.668076
2022-11-18T09:32:16.813Z,9.668081
2022-11-18T09:33:20.371Z,9.668095
2022-11-18T09:34:17.288Z,9.668104
2022-11-18T09:35:15.889Z,9.668093
2022-11-18T09:36:15.926Z,9.668099
2022-11-18T09:37:48.811Z,9.668014
2022-11-18T09:38:15.856Z,9.668075
2022-11-18T09:39:16.055Z,9.668067
2022-11-18T09:40:15.885Z,9.668066
2022-11-18T09:41:15.884Z,9.668058
2022-11-18T09:42:15.875Z,9.668067
2022-11-18T09:43:15.827Z,9.668085
2022-11-18T09:44:15.869Z,9.668080
2022-11-18T09:45:20.743Z,9.668088
2022-11-18T09:46:17.827Z,9.668049
2022-11-18T09:47:16.793Z,9.668051
2022-11-18T09:48:15.795Z,9.668040
2022-11-18T09:49:16.177Z,9.668024
2022-11-18T09:50:47.167Z,9.668007
2022-11-18T09:51:17.801Z,9.668036
2022-11-18T09:52:15.746Z,9.668035
2022-11-18T09:53:15.738Z,9.668035
2022-11-18T09:54:16.287Z,9.668035
2022-11-18T09:55:15.850Z,9.668081
2022-11-18T09:56:15.867Z,9.668100
2022-11-18T09:57:15.720Z,9.668055
2022-11-18T09:58:15.698Z,9.668042
2022-11-18T09:59:15.694Z,9.668056
2022-11-18T10:00:15.728Z,9.668032
2022-11-18T10:01:15.779Z,9.668035
2022-11-18T10:02:15.727Z,9.668032
2022-11-18T10:03:15.694Z,9.667957
2022-11-18T10:04:15.943Z,9.668041
2022-11-18T10:05:15.640Z,9.668044
2022-11-18T10:06:47.643Z,9.668042
2022-11-18T10:07:47.670Z,9.668035
2022-11-18T10:08:15.737Z,9.668008
2022-11-18T10:09:47.549Z,9.667955
2022-11-18T10:10:15.680Z,9.667973
2022-11-18T10:11:15.646Z,9.668011
2022-11-18T10:12:47.528Z,9.668024
2022-11-18T10:13:15.627Z,9.668010
2022-11-18T10:14:15.916Z,9.668026
2022-11-18T10:15:15.800Z,9.668000
2022-11-18T10:16:15.643Z,9.668004
2022-11-18T10:17:15.592Z,9.667987
2022-11-18T10:18:26.450Z,9.668008
2022-11-18T10:19:17.547Z,9.668009
2022-11-18T10:20:16.538Z,9.668012
2022-11-18T10:21:15.529Z,9.667976
2022-11-18T10:22:22.688Z,9.668003
2022-11-18T10:23:17.507Z,9.668030
2022-11-18T10:24:15.834Z,9.668016
2022-11-18T10:25:15.670Z,9.668022
2022-11-18T10:26:15.497Z,9.668044
2022-11-18T10:27:15.520Z,9.668002
2022-11-18T10:28:15.512Z,9.667987
2022-11-18T10:29:15.463Z,9.667966
2022-11-18T10:30:16.470Z,9.667997
2022-11-18T10:31:15.440Z,9.667977
2022-11-18T10:32:15.474Z,9.667989
2022-11-18T10:33:15.450Z,9.667993
2022-11-18T10:34:15.679Z,9.667994
2022-11-18T10:35:15.471Z,9.667997
2022-11-18T10:36:15.411Z,9.667995
2022-11-18T10:37:15.415Z,9.667969
2022-11-18T10:38:15.423Z,9.667962
2022-11-18T10:39:15.507Z,9.667956
2022-11-18T10:40:15.395Z,9.668015
2022-11-18T10:41:15.398Z,9.667947
2022-11-18T10:42:15.379Z,9.667986
2022-11-18T10:43:15.401Z,9.667948
2022-11-18T10:44:15.422Z,9.667935
2022-11-18T10:45:15.402Z,9.667956
2022-11-18T10:46:15.331Z,9.668008
2022-11-18T10:47:15.340Z,9.667940
2022-11-18T10:48:15.303Z,9.668021
2022-11-18T10:49:15.377Z,9.668006
2022-11-18T10:50:15.304Z,9.668034
2022-11-18T10:51:15.367Z,9.668001
2022-11-18T10:52:16.302Z,9.667996
2022-11-18T10:53:15.271Z,9.668030
2022-11-18T10:54:15.847Z,9.667978
2022-11-18T10:55:15.294Z,9.667997
2022-11-18T10:56:15.275Z,9.667994
2022-11-18T10:57:15.321Z,9.667980
2022-11-18T10:58:15.297Z,9.668029
2022-11-18T10:59:15.261Z,9.667957
2022-11-18T11:00:15.270Z,9.668030
2022-11-18T11:01:15.306Z,9.668008
2022-11-18T11:02:15.333Z,9.667982
2022-11-18T11:03:15.296Z,9.667996
2022-11-18T11:04:15.637Z,9.667992
2022-11-18T11:05:15.192Z,9.668009
2022-11-18T11:06:15.195Z,9.667998
2022-11-18T11:07:15.244Z,9.667980
2022-11-18T11:08:35.693Z,9.668049
2022-11-18T11:09:17.163Z,9.667999
2022-11-18T11:10:15.236Z,9.667966
2022-11-18T11:11:15.148Z,9.667988
2022-11-18T11:12:15.167Z,9.668055
2022-11-18T11:13:15.157Z,9.667933
2022-11-18T11:14:15.165Z,9.668002
2022-11-18T11:15:15.115Z,9.668051
2022-11-18T11:16:15.129Z,9.668004
2022-11-18T11:17:15.236Z,9.667994
2022-11-18T11:18:15.125Z,9.667950
2022-11-18T11:19:15.112Z,9.668021
2022-11-18T11:20:15.093Z,9.668003
2022-11-18T11:21:15.085Z,9.667983
2022-11-18T11:22:15.119Z,9.667987
2022-11-18T11:23:19.111Z,9.668047
2022-11-18T11:24:21.393Z,9.668043
2022-11-18T11:25:15.038Z,9.668072
2022-11-18T11:28:17.522Z,9.667967
2022-11-18T11:29:15.299Z,9.668032
2022-11-18T11:30:16.211Z,9.668023
2022-11-18T11:31:14.999Z,9.668009
2022-11-18T11:32:15.032Z,9.667990
2022-11-18T11:33:14.996Z,9.668102
2022-11-18T11:34:14.970Z,9.668033
2022-11-18T11:35:14.977Z,9.668029
2022-11-18T11:36:14.989Z,9.668083
2022-11-18T11:37:15.020Z,9.668111
2022-11-18T11:38:15.053Z,9.668139
2022-11-18T11:39:14.953Z,9.668046
2022-11-18T11:40:15.006Z,9.668057
2022-11-18T11:41:14.937Z,9.668027
2022-11-18T11:42:14.981Z,9.668035
2022-11-18T11:43:14.974Z,9.668082
2022-11-18T11:44:14.934Z,9.668056
2022-11-18T11:45:14.911Z,9.668020
2022-11-18T11:46:14.898Z,9.668041
2022-11-18T11:47:15.832Z,9.668056
2022-11-18T11:48:14.886Z,9.668050
2022-11-18T11:49:15.312Z,9.668081
2022-11-18T11:50:14.967Z,9.668058
2022-11-18T11:51:14.910Z,9.668072
2022-11-18T11:52:14.883Z,9.668006
2022-11-18T11:53:14.852Z,9.668020
2022-11-18T11:54:14.867Z,9.667992
2022-11-18T11:55:14.871Z,9.667975
2022-11-18T11:56:21.131Z,9.668023
2022-11-18T11:57:16.858Z,9.667991
2022-11-18T11:58:14.878Z,9.668008
2022-11-18T11:59:14.911Z,9.668028
2022-11-18T12:00:14.899Z,9.667980
2022-11-18T12:01:14.791Z,9.668013
2022-11-18T12:02:15.770Z,9.668050
2022-11-18T12:03:14.770Z,9.668034
2022-11-18T12:04:14.752Z,9.668008
2022-11-18T12:05:14.791Z,9.668025
2022-11-18T12:06:14.752Z,9.668005
2022-11-18T12:07:14.914Z,9.668013
2022-11-18T12:08:14.715Z,9.667946
2022-11-18T12:09:14.748Z,9.667934
2022-11-18T12:10:14.744Z,9.667988
2022-11-18T12:11:14.736Z,9.667989
2022-11-18T12:12:14.683Z,9.667963
2022-11-18T12:13:14.694Z,9.667933
2022-11-18T12:14:14.748Z,9.667983
2022-11-18T12:15:14.693Z,9.667906
2022-11-18T12:16:14.650Z,9.667918
2022-11-18T12:17:14.695Z,9.667993
2022-11-18T12:18:14.658Z,9.667787
2022-11-18T12:19:14.684Z,9.667881
2022-11-18T12:20:14.607Z,9.667933
2022-11-18T12:21:15.642Z,9.667912
2022-11-18T12:22:14.625Z,9.667972
2022-11-18T12:23:14.595Z,9.667919
2022-11-18T12:24:14.589Z,9.667958
2022-11-18T12:25:14.596Z,9.668014
2022-11-18T12:26:14.620Z,9.668028
2022-11-18T12:27:14.604Z,9.667970
2022-11-18T12:28:14.851Z,9.668023